Orlando, Florida
Traffic Map
Current Weather Conditions
Orlando, Florida
Few Clouds
Few Clouds
16°
Feels Like: 16°
Wind Chill: 16° Ceiling: Unl
Heat Index: 16° Visibility: 10mi
Dew Point: Wind: 13mph
Humidity: 41% Direction: 260° (W)
Pressure: 30.05in Gusts: 26mph
Raw Report DataKORL 081653Z 26011G23KT 10SM FEW048 16/03 A3005 RMK AO2 SLP181 T01610028
Traffic Incident Summary
Active as of:
Severity:
Category:
InformationThere was an issue retrieving the traffic information for this location. Please try a different location or try again shortly.
Advertisements
Track Severe Weather on mobile